METAR Data
IDs: Format: Raw Decoded Include TAF

Data at: 1213 UTC 23 Sep 2018

KPUJ 231155Z AUTO 00000KT 10SM CLR 20/16 A3007 RMK AO2
KPUJ 231135Z AUTO 00000KT 10SM CLR 19/16 A3007 RMK AO2
KPUJ 231115Z AUTO 00000KT 10SM CLR 20/16 A3007 RMK AO2
KPUJ 231055Z AUTO 00000KT 10SM CLR 19/16 A3007 RMK AO2
KPUJ 231035Z AUTO 00000KT 10SM CLR 19/16 A3006 RMK AO2
KPUJ 231015Z AUTO 00000KT 10SM CLR 20/16 A3006 RMK AO2
KPUJ 230955Z AUTO 00000KT 10SM CLR 20/16 A3006 RMK AO2
KPUJ 230935Z AUTO 00000KT 10SM CLR 19/16 A3006 RMK AO2
KPUJ 230915Z AUTO 00000KT 10SM CLR 19/16 A3006 RMK AO2
KPUJ 230850Z AUTO 00000KT 10SM CLR 21/15 A3006 RMK AO2
KPUJ 230835Z AUTO 00000KT 10SM CLR 20/16 A3006 RMK AO2
KPUJ 230815Z AUTO 00000KT 10SM CLR 21/16 A3006 RMK AO2
KPUJ 230755Z AUTO 00000KT 10SM CLR 21/16 A3006 RMK AO2
KPUJ 230735Z AUTO 00000KT 10SM CLR 21/16 A3006 RMK AO2
KPUJ 230715Z AUTO 00000KT 10SM CLR 22/16 A3007 RMK AO2
KPUJ 230655Z AUTO 00000KT 10SM CLR 22/16 A3006 RMK AO2
KPUJ 230635Z AUTO 00000KT 10SM CLR 22/16 A3007 RMK AO2
KPUJ 230615Z AUTO 00000KT 10SM CLR 22/16 A3007 RMK AO2
KPUJ 230555Z AUTO 00000KT 10SM CLR 22/16 A3007 RMK AO2
KPUJ 230535Z AUTO 00000KT 10SM CLR 22/16 A3008 RMK AO2
KPUJ 230515Z AUTO 00000KT 10SM CLR 23/16 A3008 RMK AO2
KPUJ 230455Z AUTO 00000KT 10SM CLR 23/16 A3009 RMK AO2
KPUJ 230435Z AUTO 00000KT 10SM CLR 23/17 A3009 RMK AO2
KPUJ 230415Z AUTO 00000KT 10SM CLR 23/17 A3009 RMK AO2
KPUJ 230355Z AUTO 00000KT 10SM CLR 23/17 A3010 RMK AO2
KPUJ 230335Z AUTO 00000KT 10SM CLR 22/17 A3010 RMK AO2
KPUJ 230315Z AUTO 00000KT 10SM CLR 23/18 A3010 RMK AO2
KPUJ 230255Z AUTO 00000KT 10SM CLR 23/18 A3009 RMK AO2
KPUJ 230235Z AUTO 00000KT 10SM CLR 23/18 A3009 RMK AO2
KPUJ 230215Z AUTO 00000KT 10SM CLR 24/18 A3009 RMK AO2
KPUJ 230155Z AUTO 00000KT 10SM CLR 23/18 A3009 RMK AO2
KPUJ 230135Z AUTO 00000KT 10SM CLR 24/18 A3008 RMK AO2
KPUJ 230115Z AUTO 00000KT 10SM CLR 23/18 A3007 RMK AO2
KPUJ 230055Z AUTO 00000KT 10SM CLR 23/18 A3006 RMK AO2
KPUJ 230035Z AUTO 00000KT 10SM CLR 24/18 A3006 RMK AO2
KPUJ 230015Z AUTO 00000KT 10SM CLR 25/18 A3006 RMK AO2
KPUJ 222355Z AUTO 00000KT 10SM CLR 27/17 A3005 RMK AO2
KPUJ 222335Z AUTO 00000KT 10SM CLR 26/18 A3005 RMK AO2
KPUJ 222315Z AUTO 00000KT 10SM CLR 27/17 A3005 RMK AO2
KPUJ 222255Z AUTO 00000KT 10SM CLR 28/17 A3004 RMK AO2
KPUJ 222235Z AUTO 00000KT 10SM CLR 29/17 A3004 RMK AO2
KPUJ 222215Z AUTO 00000KT 10SM CLR 30/16 A3003 RMK AO2
KPUJ 222155Z AUTO 00000KT 10SM SCT050 SCT070 SCT090 30/16 A3003 RMK AO2
KPUJ 222135Z AUTO 00000KT 10SM SCT050 SCT070 BKN090 31/17 A3003 RMK AO2
KPUJ 222115Z AUTO 00000KT 10SM SCT050 31/16 A3003 RMK AO2
KPUJ 222055Z AUTO 00000KT 10SM SCT050 SCT065 31/16 A3004 RMK AO2
KPUJ 222035Z AUTO 00000KT 10SM SCT050 31/16 A3005 RMK AO2
KPUJ 222015Z AUTO 00000KT 10SM SCT050 31/16 A3005 RMK AO2
KPUJ 221955Z AUTO 19005KT 10SM SCT050 31/16 A3006 RMK AO2
KPUJ 221935Z AUTO 00000KT 10SM SCT049 SCT095 31/16 A3007 RMK AO2
KPUJ 221915Z AUTO 00000KT 10SM SCT049 SCT095 30/17 A3008 RMK AO2
KPUJ 221855Z AUTO 00000KT 10SM SCT047 SCT050 29/17 A3009 RMK AO2
KPUJ 221835Z AUTO 00000KT 10SM SCT047 SCT050 30/17 A3010 RMK AO2
KPUJ 221815Z AUTO 00000KT 10SM SCT043 SCT050 31/17 A3011 RMK AO2
KPUJ 221755Z AUTO 00000KT 10SM SCT041 SCT060 30/17 A3012 RMK AO2
KPUJ 221735Z AUTO 00000KT 10SM SCT039 SCT047 SCT060 30/18 A3013 RMK AO2
KPUJ 221715Z AUTO 00000KT 10SM BKN038 BKN047 30/18 A3013 RMK AO2
KPUJ 221655Z AUTO 00000KT 10SM BKN034 BKN042 BKN049 29/19 A3014 RMK AO2
KPUJ 221635Z AUTO 00000KT 10SM SCT034 SCT042 28/18 A3015 RMK AO2
KPUJ 221615Z AUTO 00000KT 10SM SCT027 28/18 A3015 RMK AO2
KPUJ 221555Z AUTO 00000KT 10SM SCT027 28/20 A3016 RMK AO2
KPUJ 221535Z AUTO 00000KT 10SM CLR 27/19 A3016 RMK AO2
KPUJ 221515Z AUTO 00000KT 10SM CLR 26/20 A3016 RMK AO2
KPUJ 221455Z AUTO 00000KT 10SM CLR 26/20 A3016 RMK AO2
KPUJ 221435Z AUTO 00000KT 10SM CLR 26/20 A3016 RMK AO2
KPUJ 221415Z AUTO 00000KT 10SM CLR 25/20 A3015 RMK AO2
KPUJ 221355Z AUTO 00000KT 10SM CLR 24/20 A3015 RMK AO2
KPUJ 221335Z AUTO 00000KT 10SM CLR 23/21 A3015 RMK AO2
KPUJ 221315Z AUTO 00000KT 10SM CLR 22/21 A3015 RMK AO2
KPUJ 221255Z AUTO 00000KT 10SM CLR 21/21 A3015 RMK AO2
KPUJ 221235Z AUTO 00000KT 10SM CLR 21/21 A3014 RMK AO2
KPUJ 221215Z AUTO 00000KT 10SM CLR 20/20 A3014 RMK AO2
KPUJ 221155Z AUTO 00000KT 10SM CLR 20/20 A3014 RMK AO2
KPUJ 221135Z AUTO 00000KT 10SM CLR 20/20 A3013 RMK AO2
KPUJ 221115Z AUTO 00000KT 10SM CLR 19/19 A3013 RMK AO2
KPUJ 221055Z AUTO 00000KT 10SM CLR 20/20 A3013 RMK AO2
KPUJ 221035Z AUTO 00000KT 10SM CLR 20/20 A3013 RMK AO2
KPUJ 221015Z AUTO 00000KT 10SM CLR 19/19 A3013 RMK AO2
KPUJ 220955Z AUTO 00000KT 10SM CLR 19/19 A3013 RMK AO2
KPUJ 220935Z AUTO 00000KT 10SM CLR 20/19 A3013 RMK AO2
KPUJ 220915Z AUTO 00000KT 10SM CLR 20/18 A3013 RMK AO2
KPUJ 220855Z AUTO 00000KT 10SM CLR 20/17 A3013 RMK AO2
KPUJ 220835Z AUTO 00000KT 10SM CLR 20/17 A3013 RMK AO2
KPUJ 220815Z AUTO 00000KT 10SM CLR 21/17 A3013 RMK AO2
KPUJ 220755Z AUTO 00000KT 10SM CLR 21/17 A3013 RMK AO2
KPUJ 220735Z AUTO 00000KT 10SM CLR 21/17 A3013 RMK AO2
KPUJ 220715Z AUTO 00000KT 10SM CLR 21/17 A3014 RMK AO2
KPUJ 220655Z AUTO 00000KT 10SM CLR 22/17 A3014 RMK AO2
KPUJ 220635Z AUTO 00000KT 10SM CLR 22/17 A3015 RMK AO2
KPUJ 220615Z AUTO 00000KT 10SM CLR 22/17 A3015 RMK AO2
KPUJ 220555Z AUTO 00000KT 10SM CLR 22/17 A3015 RMK AO2
KPUJ 220535Z AUTO 00000KT 10SM CLR 22/17 A3016 RMK AO2
KPUJ 220515Z AUTO 00000KT 10SM SCT120 22/17 A3016 RMK AO2
KPUJ 220455Z AUTO 00000KT 10SM CLR 22/17 A3016 RMK AO2
KPUJ 220435Z AUTO 00000KT 10SM CLR 22/16 A3016 RMK AO2
KPUJ 220415Z AUTO 00000KT 10SM CLR 23/16 A3016 RMK AO2
KPUJ 220355Z AUTO 00000KT 10SM CLR 23/16 A3016 RMK AO2
KPUJ 220335Z AUTO 00000KT 10SM CLR 23/16 A3016 RMK AO2
KPUJ 220315Z AUTO 00000KT 10SM CLR 23/16 A3016 RMK AO2
KPUJ 220255Z AUTO 00000KT 10SM CLR 23/16 A3016 RMK AO2
KPUJ 220235Z AUTO 00000KT 10SM CLR 23/17 A3016 RMK AO2
KPUJ 220215Z AUTO 00000KT 10SM CLR 24/17 A3016 RMK AO2
KPUJ 220155Z AUTO 00000KT 10SM CLR 24/17 A3015 RMK AO2
KPUJ 220135Z AUTO 00000KT 10SM CLR 25/16 A3015 RMK AO2
KPUJ 220115Z AUTO 00000KT 10SM CLR 24/16 A3014 RMK AO2
KPUJ 220055Z AUTO 00000KT 10SM CLR 23/16 A3013 RMK AO2
KPUJ 220035Z AUTO 00000KT 10SM CLR 23/17 A3013 RMK AO2
KPUJ 220015Z AUTO 00000KT 10SM CLR 24/17 A3013 RMK AO2